createdAt,value
2022-08-10T00:01:54.223Z,2.20
2022-08-10T00:04:25.106Z,2.50
2022-08-10T00:06:55.724Z,2.80
2022-08-10T00:09:23.801Z,2.63
2022-08-10T00:11:51.226Z,3.13
2022-08-10T00:14:18.467Z,2.55
2022-08-10T00:16:45.634Z,2.60
2022-08-10T00:19:12.844Z,2.50
2022-08-10T00:21:44.122Z,2.42
2022-08-10T00:24:11.287Z,2.55
2022-08-10T00:27:52.984Z,2.58
2022-08-10T00:29:25.570Z,2.85
2022-08-10T00:31:58.141Z,3.50
2022-08-10T00:34:26.145Z,3.88
2022-08-10T00:36:53.295Z,3.95
2022-08-10T00:39:20.541Z,3.65
2022-08-10T00:42:02.315Z,3.13
2022-08-10T00:44:46.119Z,2.72
2022-08-10T00:47:35.791Z,2.90
2022-08-10T00:50:01.217Z,2.60
2022-08-10T00:52:30.532Z,2.45
2022-08-10T00:54:57.783Z,3.10
2022-08-10T00:57:25.654Z,2.85
2022-08-10T00:59:59.340Z,3.38
2022-08-10T01:02:28.094Z,3.08
2022-08-10T01:04:59.611Z,2.80
2022-08-10T01:07:43.297Z,3.88
2022-08-10T01:10:19.369Z,4.28
2022-08-10T01:12:49.735Z,3.38
2022-08-10T01:15:25.266Z,3.75
2022-08-10T01:17:55.595Z,3.38
2022-08-10T01:20:30.802Z,2.95
2022-08-10T01:23:04.413Z,3.15
2022-08-10T01:26:11.178Z,3.05
2022-08-10T01:28:47.238Z,2.85
2022-08-10T01:31:16.987Z,3.03
2022-08-10T01:34:01.822Z,3.92
2022-08-10T01:36:32.867Z,3.42
2022-08-10T01:39:01.048Z,3.20
2022-08-10T01:41:45.526Z,5.05
2022-08-10T01:44:15.655Z,3.88
2022-08-10T01:46:56.851Z,3.50
2022-08-10T01:49:25.074Z,3.50
2022-08-10T01:51:55.759Z,3.20
2022-08-10T01:54:25.019Z,2.75
2022-08-10T01:56:54.831Z,3.10
2022-08-10T01:59:24.769Z,4.10
2022-08-10T02:01:55.610Z,3.15
2022-08-10T02:04:23.624Z,3.28
2022-08-10T02:06:51.706Z,4.10
2022-08-10T02:09:24.643Z,3.05
2022-08-10T02:12:05.202Z,3.58
2022-08-10T02:14:42.894Z,3.75
2022-08-10T02:18:00.139Z,4.13
2022-08-10T02:20:04.230Z,3.58
2022-08-10T02:22:37.527Z,3.42
2022-08-10T02:25:06.707Z,3.55
2022-08-10T02:27:34.982Z,3.00
2022-08-10T02:30:03.253Z,3.08
2022-08-10T02:32:38.037Z,3.20
2022-08-10T02:35:08.275Z,3.17
2022-08-10T02:37:42.914Z,3.25
2022-08-10T02:42:18.762Z,3.50
2022-08-10T02:45:21.402Z,2.80
2022-08-10T02:46:11.716Z,3.25
2022-08-10T02:48:41.796Z,3.03
2022-08-10T02:51:16.074Z,3.03
2022-08-10T02:53:55.704Z,3.53
2022-08-10T02:56:27.047Z,3.10
2022-08-10T02:58:59.754Z,3.40
2022-08-10T03:01:30.417Z,3.20
2022-08-10T03:03:59.794Z,3.60
2022-08-10T03:06:29.619Z,3.28
2022-08-10T03:08:58.398Z,3.58
2022-08-10T03:12:35.858Z,3.42
2022-08-10T03:14:16.759Z,3.60
2022-08-10T03:16:44.896Z,3.08
2022-08-10T03:20:04.625Z,3.20
2022-08-10T03:21:59.891Z,3.20
2022-08-10T03:24:33.021Z,3.38
2022-08-10T03:27:00.723Z,3.15
2022-08-10T03:29:28.911Z,3.40
2022-08-10T03:31:56.260Z,3.55
2022-08-10T03:34:32.869Z,2.90
2022-08-10T03:37:00.939Z,2.80
2022-08-10T03:39:28.513Z,3.17
2022-08-10T03:41:58.482Z,3.20
2022-08-10T03:44:28.207Z,3.58
2022-08-10T03:46:56.083Z,3.03
2022-08-10T03:49:23.958Z,3.70
2022-08-10T03:51:51.564Z,3.42
2022-08-10T03:54:19.587Z,3.45
2022-08-10T03:56:46.919Z,3.00
2022-08-10T03:59:15.475Z,3.40
2022-08-10T04:02:52.879Z,3.10
2022-08-10T04:04:30.390Z,3.17
2022-08-10T04:06:59.081Z,3.63
2022-08-10T04:09:53.503Z,3.50
2022-08-10T04:12:20.871Z,3.63
2022-08-10T04:14:50.713Z,2.95
2022-08-10T04:18:03.443Z,3.47
2022-08-10T04:20:08.379Z,3.38
2022-08-10T04:22:36.273Z,3.38
2022-08-10T04:25:05.535Z,2.80
2022-08-10T04:27:32.987Z,3.10
2022-08-10T04:30:00.447Z,3.20
2022-08-10T04:32:31.403Z,3.40
2022-08-10T04:34:59.176Z,3.40
2022-08-10T04:37:26.631Z,3.10
2022-08-10T04:39:54.242Z,3.45
2022-08-10T04:42:21.495Z,3.00
2022-08-10T04:44:48.634Z,3.78
2022-08-10T04:47:16.906Z,3.05
2022-08-10T04:50:03.071Z,3.20
2022-08-10T04:52:32.215Z,2.92
2022-08-10T04:54:59.495Z,2.70
2022-08-10T04:57:27.113Z,3.30
2022-08-10T04:59:54.291Z,3.20
2022-08-10T05:02:30.474Z,3.08
2022-08-10T05:04:59.254Z,3.10
2022-08-10T05:07:26.486Z,3.25
2022-08-10T05:10:01.099Z,3.40
2022-08-10T05:12:35.686Z,3.35
2022-08-10T05:15:04.776Z,2.95
2022-08-10T05:17:31.910Z,3.30
2022-08-10T05:20:03.170Z,3.13
2022-08-10T05:22:33.816Z,2.88
2022-08-10T05:25:01.044Z,2.63
2022-08-10T05:27:28.187Z,3.00
2022-08-10T05:30:01.604Z,2.72
2022-08-10T05:32:29.890Z,2.47
2022-08-10T05:34:57.054Z,2.70
2022-08-10T05:38:09.061Z,2.88
2022-08-10T05:40:12.244Z,3.00
2022-08-10T05:42:40.036Z,2.90
2022-08-10T05:45:10.256Z,2.60
2022-08-10T05:48:55.247Z,2.55
2022-08-10T05:50:27.317Z,2.83
2022-08-10T05:52:55.159Z,2.80
2022-08-10T05:55:23.709Z,2.15
2022-08-10T05:57:52.882Z,2.60
2022-08-10T06:00:36.273Z,2.55
2022-08-10T06:03:08.648Z,2.78
2022-08-10T06:05:37.500Z,2.72
2022-08-10T06:08:04.611Z,2.80
2022-08-10T06:10:35.296Z,2.45
2022-08-10T06:13:26.917Z,2.40
2022-08-10T06:16:03.210Z,2.50
2022-08-10T06:18:30.799Z,2.60
2022-08-10T06:20:58.110Z,2.40
2022-08-10T06:23:26.655Z,2.40
2022-08-10T06:26:08.918Z,2.25
2022-08-10T06:28:41.568Z,2.30
2022-08-10T06:31:09.682Z,2.50
2022-08-10T06:33:39.597Z,2.75
2022-08-10T06:36:08.744Z,2.47
2022-08-10T06:38:36.693Z,2.67
2022-08-10T06:41:05.823Z,2.60
2022-08-10T06:43:34.186Z,2.33
2022-08-10T06:46:07.747Z,2.33
2022-08-10T06:48:39.032Z,2.10
2022-08-10T06:51:07.703Z,2.50
2022-08-10T06:53:54.232Z,2.40
2022-08-10T06:56:37.869Z,2.22
2022-08-10T06:59:06.826Z,2.13
2022-08-10T07:01:51.359Z,1.95
2022-08-10T07:04:32.086Z,2.03
2022-08-10T07:07:02.725Z,1.88
2022-08-10T07:09:31.278Z,2.08
2022-08-10T07:12:08.127Z,1.88
2022-08-10T07:14:40.661Z,1.75
2022-08-10T07:17:15.699Z,1.85
2022-08-10T07:19:49.510Z,1.65
2022-08-10T07:23:01.784Z,1.60
2022-08-10T07:25:07.250Z,1.60
2022-08-10T07:27:39.139Z,1.75
2022-08-10T07:30:22.416Z,1.60
2022-08-10T07:32:53.341Z,1.63
2022-08-10T07:35:22.243Z,1.42
2022-08-10T07:37:51.484Z,1.98
2022-08-10T07:40:20.137Z,1.73
2022-08-10T07:42:53.114Z,1.50
2022-08-10T07:45:20.493Z,1.50
2022-08-10T07:48:02.491Z,1.70
2022-08-10T07:50:35.405Z,1.40
2022-08-10T07:53:04.474Z,1.60
2022-08-10T07:56:04.296Z,1.80
2022-08-10T07:58:22.507Z,1.63
2022-08-10T08:00:51.429Z,1.85
2022-08-10T08:03:21.660Z,1.40
2022-08-10T08:06:02.910Z,1.70
2022-08-10T08:11:02.445Z,1.30
2022-08-10T08:13:30.183Z,1.60
2022-08-10T08:16:18.640Z,1.50
2022-08-10T08:18:54.119Z,1.30
2022-08-10T08:24:08.635Z,1.52
2022-08-10T08:24:31.779Z,1.40
2022-08-10T08:27:01.401Z,1.33
2022-08-10T08:29:29.090Z,1.38
2022-08-10T08:32:02.659Z,1.70
2022-08-10T08:34:32.316Z,1.42
2022-08-10T08:37:00.992Z,1.63
2022-08-10T08:39:28.709Z,1.65
2022-08-10T08:42:15.047Z,1.50
2022-08-10T08:44:51.604Z,1.60
2022-08-10T08:48:03.871Z,1.40
2022-08-10T08:50:27.751Z,1.55
2022-08-10T08:55:55.187Z,1.50
2022-08-10T08:58:43.291Z,1.40
2022-08-10T09:01:10.507Z,1.30
2022-08-10T09:03:37.712Z,1.50
2022-08-10T09:06:37.270Z,1.77
2022-08-10T09:09:19.523Z,1.52
2022-08-10T09:11:58.951Z,1.80
2022-08-10T09:14:28.866Z,1.85
2022-08-10T09:17:08.010Z,1.30
2022-08-10T09:19:38.210Z,1.67
2022-08-10T09:22:17.431Z,1.55
2022-08-10T09:24:46.244Z,1.45
2022-08-10T09:27:19.121Z,1.70
2022-08-10T09:29:53.104Z,1.45
2022-08-10T09:36:16.062Z,1.70
2022-08-10T09:36:20.171Z,1.50
2022-08-10T09:38:29.077Z,1.40
2022-08-10T09:41:13.044Z,1.80
2022-08-10T09:43:53.244Z,1.80
2022-08-10T09:46:27.615Z,1.77
2022-08-10T09:48:58.318Z,1.60
2022-08-10T09:51:46.422Z,1.50
2022-08-10T09:54:14.395Z,1.70
2022-08-10T09:56:41.636Z,1.70
2022-08-10T09:59:26.621Z,1.83
2022-08-10T10:02:03.582Z,1.60
2022-08-10T10:04:31.620Z,1.40
2022-08-10T10:07:08.900Z,1.35
2022-08-10T10:09:54.741Z,1.52
2022-08-10T10:12:37.208Z,1.60
2022-08-10T10:15:24.474Z,1.55
2022-08-10T10:18:01.959Z,1.40
2022-08-10T10:20:56.254Z,1.50
2022-08-10T10:23:35.367Z,1.37
2022-08-10T10:26:08.454Z,2.05
2022-08-10T10:29:25.164Z,1.58
2022-08-10T10:32:03.227Z,1.80
2022-08-10T10:34:35.978Z,1.83
2022-08-10T10:37:06.494Z,1.80
2022-08-10T10:39:35.305Z,2.25
2022-08-10T10:42:44.285Z,1.60
2022-08-10T10:45:27.294Z,1.90
2022-08-10T10:48:00.239Z,1.70
2022-08-10T10:50:46.162Z,1.60
2022-08-10T10:53:18.010Z,2.15
2022-08-10T10:56:14.338Z,1.70
2022-08-10T10:58:43.971Z,2.00
2022-08-10T11:01:23.392Z,1.75
2022-08-10T11:03:59.707Z,1.80
2022-08-10T11:06:40.498Z,2.10
2022-08-10T11:10:09.277Z,1.88
2022-08-10T11:12:04.801Z,1.70
2022-08-10T11:14:32.219Z,1.30
2022-08-10T11:17:00.380Z,1.50
2022-08-10T11:20:00.264Z,1.75
2022-08-10T11:22:49.390Z,1.42
2022-08-10T11:25:36.786Z,1.80
2022-08-10T11:28:22.846Z,1.92
2022-08-10T11:30:56.173Z,1.70
2022-08-10T11:34:03.946Z,1.67
2022-08-10T11:39:16.009Z,1.80
2022-08-10T11:42:12.333Z,1.50
2022-08-10T11:44:33.423Z,1.40
2022-08-10T11:47:12.573Z,1.55
2022-08-10T11:49:48.915Z,1.60
2022-08-10T11:52:17.514Z,1.75
2022-08-10T11:54:48.147Z,2.03
2022-08-10T11:57:18.354Z,1.58
2022-08-10T11:59:59.164Z,2.05
2022-08-10T12:02:26.778Z,1.40
2022-08-10T12:04:59.865Z,1.52
2022-08-10T12:08:54.668Z,1.80
2022-08-10T12:10:15.169Z,1.67
2022-08-10T12:12:48.062Z,1.65
2022-08-10T12:15:22.046Z,1.58
2022-08-10T12:17:58.611Z,1.58
2022-08-10T12:20:28.495Z,1.50
2022-08-10T12:23:31.286Z,1.20
2022-08-10T12:26:09.451Z,1.40
2022-08-10T12:28:59.049Z,1.45
2022-08-10T12:31:32.980Z,1.63
2022-08-10T12:34:03.333Z,1.27
2022-08-10T12:36:45.588Z,1.60
2022-08-10T12:39:19.273Z,1.52
2022-08-10T12:41:46.432Z,1.98
2022-08-10T12:44:21.518Z,1.70
2022-08-10T12:46:51.247Z,1.80
2022-08-10T12:49:18.379Z,1.67
2022-08-10T12:51:49.588Z,1.85
2022-08-10T12:54:31.930Z,1.60
2022-08-10T12:57:10.125Z,1.58
2022-08-10T12:59:43.089Z,1.70
2022-08-10T13:02:13.028Z,1.30
2022-08-10T13:04:42.302Z,1.35
2022-08-10T13:07:09.935Z,1.63
2022-08-10T13:09:56.029Z,1.50
2022-08-10T13:12:44.821Z,1.55
2022-08-10T13:15:45.803Z,1.50
2022-08-10T13:18:18.779Z,1.50
2022-08-10T13:20:50.331Z,1.60
2022-08-10T13:23:20.657Z,1.50
2022-08-10T13:25:48.811Z,1.60
2022-08-10T13:28:35.926Z,1.40
2022-08-10T13:31:07.423Z,1.50
2022-08-10T13:34:39.869Z,1.50
2022-08-10T13:36:31.290Z,1.80
2022-08-10T13:38:58.901Z,1.40
2022-08-10T13:41:30.167Z,1.13
2022-08-10T13:43:58.916Z,1.73
2022-08-10T13:46:26.428Z,1.50
2022-08-10T13:48:54.319Z,1.33
2022-08-10T13:51:23.171Z,1.45
2022-08-10T13:54:11.300Z,1.48
2022-08-10T13:56:38.750Z,1.70
2022-08-10T13:59:09.867Z,1.58
2022-08-10T14:01:38.428Z,1.40
2022-08-10T14:04:06.782Z,1.77
2022-08-10T14:06:34.271Z,1.27
2022-08-10T14:09:04.906Z,1.10
2022-08-10T14:11:32.595Z,1.73
2022-08-10T14:14:03.851Z,2.08
2022-08-10T14:16:31.396Z,1.65
2022-08-10T14:19:05.673Z,1.42
2022-08-10T14:21:38.106Z,1.35
2022-08-10T14:24:05.497Z,1.35
2022-08-10T14:26:32.893Z,1.50
2022-08-10T14:29:05.259Z,1.52
2022-08-10T14:31:34.991Z,1.58
2022-08-10T14:34:03.616Z,1.60
2022-08-10T14:36:42.639Z,1.88
2022-08-10T14:39:12.672Z,1.50
2022-08-10T14:42:01.130Z,1.30
2022-08-10T14:44:30.323Z,1.67
2022-08-10T14:47:01.321Z,1.42
2022-08-10T14:49:57.080Z,1.60
2022-08-10T14:52:26.967Z,1.40
2022-08-10T14:54:55.082Z,1.25
2022-08-10T14:57:22.827Z,1.77
2022-08-10T15:00:28.135Z,1.45
2022-08-10T15:03:01.309Z,1.30
2022-08-10T15:05:39.561Z,1.40
2022-08-10T15:08:09.706Z,1.60
2022-08-10T15:10:40.262Z,2.08
2022-08-10T15:13:08.446Z,1.50
2022-08-10T15:16:12.143Z,1.30
2022-08-10T15:18:57.979Z,1.58
2022-08-10T15:21:29.160Z,1.50
2022-08-10T15:24:14.777Z,1.42
2022-08-10T15:26:51.256Z,1.30
2022-08-10T15:29:26.063Z,1.50
2022-08-10T15:32:12.255Z,1.98
2022-08-10T15:34:58.228Z,1.17
2022-08-10T15:37:40.108Z,1.35
2022-08-10T15:40:24.438Z,1.63
2022-08-10T15:43:20.863Z,1.50
2022-08-10T15:45:57.393Z,1.67
2022-08-10T15:48:26.130Z,1.60
2022-08-10T15:50:58.912Z,1.40
2022-08-10T15:53:49.133Z,1.42
2022-08-10T15:56:40.070Z,1.27
2022-08-10T15:59:10.233Z,1.77
2022-08-10T16:02:13.289Z,1.40
2022-08-10T16:04:34.268Z,1.55
2022-08-10T16:07:04.089Z,1.35
2022-08-10T16:10:22.696Z,1.40
2022-08-10T16:12:32.394Z,1.40
2022-08-10T16:15:06.528Z,1.40
2022-08-10T16:17:55.002Z,1.73
2022-08-10T16:20:52.485Z,1.50
2022-08-10T16:23:37.175Z,1.25
2022-08-10T16:26:14.627Z,1.45
2022-08-10T16:28:48.729Z,1.33
2022-08-10T16:31:21.245Z,1.30
2022-08-10T16:33:54.936Z,1.48
2022-08-10T16:36:23.304Z,1.50
2022-08-10T16:38:52.475Z,1.50
2022-08-10T16:42:01.971Z,1.60
2022-08-10T16:44:11.037Z,1.27
2022-08-10T16:46:41.239Z,1.77
2022-08-10T16:49:09.439Z,1.67
2022-08-10T16:51:37.196Z,1.63
2022-08-10T16:54:04.590Z,1.50
2022-08-10T16:56:49.167Z,1.42
2022-08-10T16:59:21.003Z,1.60
2022-08-10T17:01:54.150Z,1.40
2022-08-10T17:04:23.193Z,1.40
2022-08-10T17:06:56.346Z,1.67
2022-08-10T17:09:28.050Z,1.30
2022-08-10T17:11:56.125Z,1.60
2022-08-10T17:14:24.560Z,1.20
2022-08-10T17:16:53.694Z,1.20
2022-08-10T17:19:22.677Z,1.38
2022-08-10T17:21:52.542Z,1.38
2022-08-10T17:24:22.088Z,1.27
2022-08-10T17:26:50.016Z,1.55
2022-08-10T17:29:57.462Z,1.27
2022-08-10T17:32:07.245Z,1.58
2022-08-10T17:34:38.261Z,1.60
2022-08-10T17:37:12.015Z,1.63
2022-08-10T17:39:41.814Z,1.75
2022-08-10T17:42:09.328Z,1.70
2022-08-10T17:44:38.336Z,1.50
2022-08-10T17:47:10.892Z,1.85
2022-08-10T17:49:39.218Z,1.33
2022-08-10T17:52:08.366Z,1.60
2022-08-10T17:54:37.472Z,1.48
2022-08-10T17:57:10.842Z,1.45
2022-08-10T17:59:38.812Z,2.28
2022-08-10T18:02:08.153Z,1.40
2022-08-10T18:04:42.044Z,1.58
2022-08-10T18:07:10.909Z,1.65
2022-08-10T18:09:46.598Z,1.73
2022-08-10T18:12:36.084Z,1.80
2022-08-10T18:15:12.478Z,1.88
2022-08-10T18:17:42.802Z,1.90
2022-08-10T18:20:11.203Z,1.70
2022-08-10T18:22:43.631Z,1.70
2022-08-10T18:25:16.696Z,1.98
2022-08-10T18:28:00.937Z,2.20
2022-08-10T18:30:33.085Z,1.80
2022-08-10T18:33:04.242Z,2.22
2022-08-10T18:35:34.694Z,2.03
2022-08-10T18:38:02.929Z,1.60
2022-08-10T18:40:35.678Z,1.98
2022-08-10T18:43:09.929Z,2.13
2022-08-10T18:45:53.096Z,1.90
2022-08-10T18:48:22.707Z,1.83
2022-08-10T18:50:55.069Z,1.75
2022-08-10T18:53:57.664Z,1.70
2022-08-10T18:56:43.155Z,1.48
2022-08-10T18:59:19.457Z,1.70
2022-08-10T19:01:58.222Z,1.70
2022-08-10T19:04:28.512Z,1.75
2022-08-10T19:07:14.227Z,1.73
2022-08-10T19:09:50.622Z,1.92
2022-08-10T19:12:31.570Z,1.77
2022-08-10T19:15:17.775Z,1.70
2022-08-10T19:18:07.541Z,1.90
2022-08-10T19:20:50.313Z,1.70
2022-08-10T19:23:29.668Z,1.92
2022-08-10T19:26:43.145Z,1.70
2022-08-10T19:30:08.281Z,1.95
2022-08-10T19:32:32.747Z,1.90
2022-08-10T19:35:32.405Z,2.20
2022-08-10T19:38:31.444Z,2.22
2022-08-10T19:41:14.978Z,1.55
2022-08-10T19:44:00.650Z,1.90
2022-08-10T19:46:47.183Z,1.85
2022-08-10T19:49:17.488Z,1.80
2022-08-10T19:51:50.749Z,1.80
2022-08-10T19:54:21.345Z,1.83
2022-08-10T19:57:14.678Z,1.98
2022-08-10T20:00:17.227Z,2.63
2022-08-10T20:02:32.194Z,1.75
2022-08-10T20:05:18.139Z,2.20
2022-08-10T20:07:45.257Z,1.70
2022-08-10T20:10:24.926Z,1.90
2022-08-10T20:12:52.088Z,1.70
2022-08-10T20:15:29.007Z,1.70
2022-08-10T20:18:05.242Z,1.88
2022-08-10T20:20:48.914Z,2.00
2022-08-10T20:23:21.045Z,1.92
2022-08-10T20:25:51.099Z,1.90
2022-08-10T20:28:20.357Z,1.80
2022-08-10T20:30:51.727Z,1.90
2022-08-10T20:33:26.223Z,1.83
2022-08-10T20:36:05.846Z,2.45
2022-08-10T20:38:33.033Z,2.15
2022-08-10T20:41:09.638Z,2.15
2022-08-10T20:43:39.804Z,2.13
2022-08-10T20:46:16.777Z,2.00
2022-08-10T20:48:49.567Z,1.90
2022-08-10T20:51:21.628Z,2.35
2022-08-10T20:53:53.193Z,1.98
2022-08-10T20:56:38.868Z,1.98
2022-08-10T20:59:24.607Z,1.90
2022-08-10T21:02:20.851Z,2.35
2022-08-10T21:04:53.742Z,2.05
2022-08-10T21:10:36.435Z,2.13
2022-08-10T21:13:18.561Z,2.28
2022-08-10T21:15:55.576Z,2.00
2022-08-10T21:18:43.971Z,2.10
2022-08-10T21:21:19.278Z,2.03
2022-08-10T21:24:07.095Z,2.08
2022-08-10T21:26:47.385Z,2.78
2022-08-10T21:29:40.222Z,2.30
2022-08-10T21:32:13.407Z,2.22
2022-08-10T21:34:59.115Z,2.35
2022-08-10T21:37:39.631Z,1.80
2022-08-10T21:40:35.583Z,2.33
2022-08-10T21:43:25.215Z,2.22
2022-08-10T21:46:54.654Z,2.13
2022-08-10T21:49:53.367Z,2.72
2022-08-10T21:52:53.632Z,2.45
2022-08-10T21:56:11.467Z,2.30
2022-08-10T21:59:07.974Z,2.25
2022-08-10T22:01:56.443Z,2.50
2022-08-10T22:04:45.604Z,3.13
2022-08-10T22:07:33.535Z,2.55
2022-08-10T22:10:22.895Z,2.30
2022-08-10T22:13:12.333Z,2.47
2022-08-10T22:16:09.845Z,2.65
2022-08-10T22:19:02.237Z,2.50
2022-08-10T22:22:00.074Z,2.50
2022-08-10T22:25:05.898Z,2.30
2022-08-10T22:28:03.604Z,2.67
2022-08-10T22:31:22.758Z,2.47
2022-08-10T22:34:11.289Z,2.70
2022-08-10T22:37:15.207Z,2.20
2022-08-10T22:40:20.237Z,2.75
2022-08-10T22:43:10.304Z,2.78
2022-08-10T22:45:57.773Z,2.28
2022-08-10T22:48:43.859Z,2.10
2022-08-10T22:51:15.926Z,2.60
2022-08-10T22:54:04.444Z,2.35
2022-08-10T22:56:55.537Z,2.10
2022-08-10T22:59:27.467Z,2.50
2022-08-10T23:02:07.821Z,2.58
2022-08-10T23:04:44.275Z,2.50
2022-08-10T23:07:23.119Z,2.70
2022-08-10T23:09:58.307Z,2.45
2022-08-10T23:12:45.711Z,2.50
2022-08-10T23:15:37.987Z,2.40
2022-08-10T23:18:26.053Z,2.47
2022-08-10T23:20:53.940Z,2.28
2022-08-10T23:23:23.522Z,2.30
2022-08-10T23:25:57.154Z,2.30
2022-08-10T23:28:38.370Z,2.80
2022-08-10T23:31:11.841Z,2.72
2022-08-10T23:33:39.785Z,2.45
2022-08-10T23:36:33.294Z,2.17
2022-08-10T23:39:23.794Z,2.92
2022-08-10T23:41:46.796Z,2.40
2022-08-10T23:44:21.871Z,2.20
2022-08-10T23:46:49.881Z,2.10
2022-08-10T23:49:17.441Z,2.70
2022-08-10T23:51:55.881Z,3.58
2022-08-10T23:54:24.705Z,3.75
2022-08-10T23:56:52.933Z,3.70
2022-08-10T23:59:21.143Z,5.28
